Ponderosa Estates, Washington
Current Conditions -  °F | °C
As of 5:58 AM on Saturday 20 Dec 2014 (Local Time) from KTCM Reporting Station
Light Rain Light Rain  
Wind Chill: 42°   Ceiling: 4900
Heat Index: 46°   Visibility: 8mi
Dew Point: 43°   Wind: 7mph
Humidity: 90%   Direction: 140°SE
Pressure: 29.66"   Gusts: NA
Location:  47.1874°N, 122.164°W
Report Text: KTCM 201358Z AUTO 14006KT 8SM -RA FEW044 OVC049 08/06 A2966 RMK AO2 SLP049 P0006 T00780063
Loading
Personal Weather Stations






























Interactive Weather Map New forecast layout! Learn more

10-Day Weather Forecast

Advertisements
Track Severe Weather on mobile